^^
Meteo Knjazevac Station Historical Data
Daily Summary for May 28, 2022 Units:  English    Metric   Both
Daily Weekly Monthly Yearly Custom
  High: Low: Average:
Temperature: 79.2 °F 61.9 °F 65.9 °F
Dew Point: 66.9 °F 56.7 °F 61.7 °F
Humidity: 98% 64% 87%
Wind Speed: 9mph 0mph 2.3mph
Wind Gust: 21mph - -
Wind- - SSW
Pressure: 30.06 in 29.95 in -
Precipitation: 0.26 in    
Historical Graphs
 
 
Tabular Data for May 28, 2022
Time Temperature Dew Point Pressure Wind Wind Speed Wind Gust Humidity Rainfall Rate (Hourly) solar Conditions
00:00 63.9 °F 56.9 °F 30.00 in West 2 mph 4 mph 78% 0.00 in 0 W/m2
00:10 63.7 °F 57 °F 30.00 in West 2 mph 4 mph 79% 0.00 in 0 W/m2
00:20 63.5 °F 56.9 °F 30.00 in West 2 mph 6 mph 79% 0.00 in 0 W/m2
00:30 63.3 °F 56.7 °F 29.99 in West 2 mph 6 mph 79% 0.00 in 0 W/m2
00:40 63.1 °F 56.9 °F 30.00 in West 7 mph 11 mph 80% 0.00 in 0 W/m2
00:50 63.7 °F 57 °F 29.99 in West 3 mph 12 mph 79% 0.00 in 0 W/m2
01:00 63.7 °F 57.4 °F 29.99 in ESE 2 mph 6 mph 80% 0.00 in 0 W/m2
01:10 64.6 °F 58.3 °F 30.02 in WSW 5 mph 12 mph 80% 0.00 in 0 W/m2
01:20 65.5 °F 60.5 °F 30.05 in SW 9 mph 17 mph 84% 0.06 in 0 W/m2
01:30 64.6 °F 60.3 °F 30.06 in WSW 7 mph 21 mph 86% 0.06 in 0 W/m2
01:40 64 °F 60.4 °F 30.04 in SSW 1 mph 13 mph 88% 0.03 in 0 W/m2
01:50 63.7 °F 60.7 °F 30.04 in NE 5 mph 8 mph 90% 0.02 in 0 W/m2
02:00 63.2 °F 60.2 °F 30.04 in NNE 7 mph 11 mph 90% 0.01 in 0 W/m2
02:10 63.1 °F 60.5 °F 30.01 in East 5 mph 9 mph 91% 0.02 in 0 W/m2
02:20 62.8 °F 60.7 °F 30.00 in ENE 3 mph 13 mph 93% 0.02 in 0 W/m2
02:30 62.8 °F 60.1 °F 30.00 in SSE 3 mph 9 mph 91% 0.02 in 0 W/m2
02:40 62.6 °F 59.9 °F 29.99 in South 3 mph 6 mph 91% 0.01 in 0 W/m2
02:50 62.4 °F 59.8 °F 30.00 in SW 2 mph 8 mph 91% 0.01 in 0 W/m2
03:00 62.4 °F 59.8 °F 29.99 in SSW 2 mph 8 mph 91% 0.01 in 0 W/m2
03:10 62.6 °F 59.9 °F 29.99 in SSW 3 mph 6 mph 91% 0.02 in 0 W/m2
03:20 62.4 °F 59.8 °F 29.98 in SW 3 mph 7 mph 91% 0.01 in 0 W/m2
03:30 62.2 °F 59.6 °F 29.98 in SW 3 mph 7 mph 91% 0.00 in 0 W/m2
03:40 62.2 °F 59.6 °F 29.99 in SW 3 mph 7 mph 91% 0.00 in 0 W/m2
03:50 62.2 °F 60.2 °F 29.98 in ESE 2 mph 5 mph 93% 0.00 in 0 W/m2
04:00 62.2 °F 60.5 °F 29.99 in South 2 mph 5 mph 94% 0.00 in 0 W/m2
04:10 61.9 °F 60.7 °F 30.02 in West 3 mph 12 mph 96% 0.00 in 0 W/m2
04:20 61.9 °F 60.7 °F 30.03 in NNW 2 mph 7 mph 96% 0.00 in 0 W/m2
04:30 62.1 °F 60.6 °F 30.03 in Calm   6 mph 95% 0.00 in 0 W/m2
04:40 62.2 °F 60.8 °F 30.02 in NE 3 mph 6 mph 95% 0.00 in 0 W/m2
04:50 62.2 °F 61.1 °F 30.01 in SE 2 mph 6 mph 96% 0.00 in 0 W/m2
05:00 62.2 °F 61.1 °F 30.01 in SE 3 mph 6 mph 96% 0.00 in 1 W/m2
05:10 62.1 °F 60.9 °F 30.00 in South 2 mph 6 mph 96% 0.00 in 5 W/m2
05:20 61.9 °F 60.4 °F 30.01 in SSW 3 mph 7 mph 95% 0.00 in 4 W/m2
05:30 62.1 °F 60.3 °F 30.00 in SSW 1 mph 6 mph 94% 0.00 in 8 W/m2
05:40 62.1 °F 60.6 °F 29.99 in West 1 mph 4 mph 95% 0.00 in 10 W/m2
05:50 61.9 °F 60.4 °F 30.00 in SW 3 mph 5 mph 95% 0.00 in 9 W/m2
06:00 61.9 °F 60.7 °F 29.99 in South 1 mph 6 mph 96% 0.02 in 12 W/m2
06:10 61.9 °F 60.7 °F 29.99 in NW 2 mph 3 mph 96% 0.00 in 19 W/m2
06:20 61.9 °F 61.3 °F 29.99 in North 1 mph 5 mph 98% 0.00 in 41 W/m2
06:30 62.1 °F 61.5 °F 29.98 in West 2 mph 3 mph 98% 0.00 in 75 W/m2
06:40 62.2 °F 61.7 °F 29.98 in Calm   4 mph 98% 0.00 in 72 W/m2
06:50 62.4 °F 61.3 °F 29.99 in NE 2 mph 5 mph 96% 0.00 in 48 W/m2
07:00 62.4 °F 61 °F 29.99 in Calm   6 mph 95% 0.00 in 74 W/m2
07:10 62.6 °F 61.1 °F 29.99 in ENE 2 mph 5 mph 95% 0.00 in 275 W/m2
07:20 62.8 °F 61.3 °F 29.99 in ESE 1 mph 5 mph 95% 0.00 in 202 W/m2
07:30 63.2 °F 61.7 °F 29.99 in Calm   3 mph 95% 0.00 in 317 W/m2
07:40 63.7 °F 62.2 °F 29.99 in ESE 2 mph 5 mph 95% 0.00 in 292 W/m2
07:50 64.4 °F 62.9 °F 29.99 in SSW 1 mph 3 mph 95% 0.00 in 302 W/m2
08:00 64.8 °F 63.3 °F 29.99 in SSW 1 mph 3 mph 95% 0.00 in 373 W/m2
08:10 65.3 °F 63.5 °F 29.99 in SSW 1 mph 3 mph 94% 0.00 in 264 W/m2
08:20 65.9 °F 63.8 °F 29.99 in Calm   2 mph 93% 0.00 in 368 W/m2
08:30 66.9 °F 64.2 °F 29.99 in West 1 mph 3 mph 91% 0.00 in 435 W/m2
08:40 67.9 °F 64.8 °F 29.99 in West 1 mph 5 mph 90% 0.00 in 553 W/m2
08:50 68.9 °F 65.2 °F 29.99 in West 2 mph 5 mph 88% 0.00 in 594 W/m2
09:00 69.8 °F 65.1 °F 29.99 in WSW 1 mph 5 mph 85% 0.00 in 479 W/m2
09:10 70.6 °F 65.1 °F 29.98 in SW 3 mph 4 mph 83% 0.00 in 591 W/m2
09:20 71.3 °F 65.1 °F 29.98 in Calm   4 mph 81% 0.00 in 670 W/m2
09:30 72.4 °F 65.8 °F 29.98 in WSW 1 mph 4 mph 80% 0.00 in 705 W/m2
09:40 73.2 °F 66.3 °F 29.97 in SW 1 mph 3 mph 79% 0.00 in 721 W/m2
09:50 73.8 °F 65.3 °F 29.97 in South 1 mph 6 mph 75% 0.00 in 749 W/m2
10:00 74.5 °F 65.6 °F 29.97 in SE 1 mph 6 mph 74% 0.00 in 755 W/m2
10:10 75 °F 65.4 °F 29.97 in ESE 2 mph 5 mph 72% 0.00 in 782 W/m2
10:20 75.4 °F 64.9 °F 29.97 in SSE 2 mph 4 mph 70% 0.00 in 827 W/m2
10:30 76.1 °F 66.9 °F 29.97 in SW 3 mph 5 mph 73% 0.00 in 847 W/m2
10:40 77 °F 66.5 °F 29.96 in SW 2 mph 5 mph 70% 0.00 in 273 W/m2
10:50 77.5 °F 66.6 °F 29.96 in SW 2 mph 5 mph 69% 0.00 in 651 W/m2
11:00 77.9 °F 66.1 °F 29.96 in SSW 2 mph 5 mph 67% 0.00 in 586 W/m2
11:10 78.4 °F 65.2 °F 29.96 in West 1 mph 4 mph 64% 0.00 in 489 W/m2
11:20 79.2 °F 66.4 °F 29.95 in WSW 3 mph 5 mph 65% 0.00 in 653 W/m2
11:30 79.2 °F 65.9 °F 29.95 in West 3 mph 5 mph 64% 0.00 in 782 W/m2
Knjazevac, Serbia
Compliments of Weather Underground - 2 mb